sensor_id;sensor_type;location;lat;lon;timestamp;pressure;altitude;pressure_sealevel;temperature;humidity
63399;BME280;49533;-34.520;150.798;2023-12-22T00:02:25;100657.38;;;22.30;46.83
63399;BME280;49533;-34.520;150.798;2023-12-22T00:04:54;100656.59;;;22.30;47.15
63399;BME280;49533;-34.520;150.798;2023-12-22T00:07:21;100657.84;;;22.40;46.44
63399;BME280;49533;-34.520;150.798;2023-12-22T00:09:49;100650.69;;;22.39;45.31
63399;BME280;49533;-34.520;150.798;2023-12-22T00:12:16;100625.66;;;22.21;44.91
63399;BME280;49533;-34.520;150.798;2023-12-22T00:14:43;100661.06;;;22.49;44.59
63399;BME280;49533;-34.520;150.798;2023-12-22T00:17:10;100654.38;;;22.53;44.92
63399;BME280;49533;-34.520;150.798;2023-12-22T00:19:37;100650.03;;;22.56;44.11
63399;BME280;49533;-34.520;150.798;2023-12-22T00:22:04;100610.31;;;22.30;43.40
63399;BME280;49533;-34.520;150.798;2023-12-22T00:24:31;100629.34;;;22.39;43.51
63399;BME280;49533;-34.520;150.798;2023-12-22T00:26:59;100623.84;;;22.43;42.90
63399;BME280;49533;-34.520;150.798;2023-12-22T00:29:26;100663.16;;;22.63;43.15
63399;BME280;49533;-34.520;150.798;2023-12-22T00:31:54;100642.50;;;22.53;43.71
63399;BME280;49533;-34.520;150.798;2023-12-22T00:34:25;100652.88;;;22.67;43.71
63399;BME280;49533;-34.520;150.798;2023-12-22T00:36:52;100627.47;;;22.50;43.61
63399;BME280;49533;-34.520;150.798;2023-12-22T00:39:19;100640.22;;;22.66;43.88
63399;BME280;49533;-34.520;150.798;2023-12-22T00:41:46;100671.09;;;22.75;42.99
63399;BME280;49533;-34.520;150.798;2023-12-22T00:44:13;100651.34;;;22.76;43.22
63399;BME280;49533;-34.520;150.798;2023-12-22T00:46:40;100641.06;;;22.77;43.12
63399;BME280;49533;-34.520;150.798;2023-12-22T00:49:07;100647.06;;;22.86;43.56
63399;BME280;49533;-34.520;150.798;2023-12-22T00:51:34;100629.56;;;22.75;42.78
63399;BME280;49533;-34.520;150.798;2023-12-22T00:54:01;100629.56;;;22.75;43.74
63399;BME280;49533;-34.520;150.798;2023-12-22T00:56:28;100635.59;;;22.91;43.36
63399;BME280;49533;-34.520;150.798;2023-12-22T00:58:55;100609.44;;;22.85;42.08
63399;BME280;49533;-34.520;150.798;2023-12-22T01:01:22;100577.72;;;22.72;43.16
63399;BME280;49533;-34.520;150.798;2023-12-22T01:03:49;100624.22;;;23.04;42.44
63399;BME280;49533;-34.520;150.798;2023-12-22T01:06:16;100610.34;;;23.04;42.85
63399;BME280;49533;-34.520;150.798;2023-12-22T01:08:43;100573.81;;;22.84;43.13
63399;BME280;49533;-34.520;150.798;2023-12-22T01:11:10;100612.75;;;23.12;43.29
63399;BME280;49533;-34.520;150.798;2023-12-22T01:13:38;100602.88;;;23.15;42.50
63399;BME280;49533;-34.520;150.798;2023-12-22T01:16:05;100583.44;;;23.04;42.67
63399;BME280;49533;-34.520;150.798;2023-12-22T01:18:32;100596.53;;;23.14;42.95
63399;BME280;49533;-34.520;150.798;2023-12-22T01:21:00;100584.25;;;23.15;42.76
63399;BME280;49533;-34.520;150.798;2023-12-22T01:23:27;100571.59;;;23.14;43.00
63399;BME280;49533;-34.520;150.798;2023-12-22T01:25:54;100564.44;;;23.13;43.20
63399;BME280;49533;-34.520;150.798;2023-12-22T01:28:21;100529.19;;;23.03;42.68
63399;BME280;49533;-34.520;150.798;2023-12-22T01:30:48;100527.97;;;22.93;43.17
63399;BME280;49533;-34.520;150.798;2023-12-22T01:33:15;100549.41;;;23.18;43.23
63399;BME280;49533;-34.520;150.798;2023-12-22T01:35:42;100547.06;;;23.27;43.18
63399;BME280;49533;-34.520;150.798;2023-12-22T01:38:09;100563.72;;;23.41;43.43
63399;BME280;49533;-34.520;150.798;2023-12-22T01:40:37;100539.94;;;23.26;43.52
63399;BME280;49533;-34.520;150.798;2023-12-22T01:43:04;100556.22;;;23.42;43.64
63399;BME280;49533;-34.520;150.798;2023-12-22T01:45:31;100532.03;;;23.25;43.81
63399;BME280;49533;-34.520;150.798;2023-12-22T01:47:58;100521.28;;;23.12;44.64
63399;BME280;49533;-34.520;150.798;2023-12-22T01:50:25;100551.84;;;23.48;44.37
63399;BME280;49533;-34.520;150.798;2023-12-22T01:52:53;100524.53;;;23.39;44.41
63399;BME280;49533;-34.520;150.798;2023-12-22T01:55:21;100511.81;;;23.28;45.16
63399;BME280;49533;-34.520;150.798;2023-12-22T01:57:49;100538.78;;;23.52;45.25
63399;BME280;49533;-34.520;150.798;2023-12-22T02:00:17;100534.81;;;23.53;45.26
63399;BME280;49533;-34.520;150.798;2023-12-22T02:02:45;100522.91;;;23.49;45.43
63399;BME280;49533;-34.520;150.798;2023-12-22T02:05:12;100529.25;;;23.57;45.45
63399;BME280;49533;-34.520;150.798;2023-12-22T02:07:42;100429.38;;;22.92;45.35
63399;BME280;49533;-34.520;150.798;2023-12-22T02:10:10;100340.28;;;22.40;45.73
63399;BME280;49533;-34.520;150.798;2023-12-22T02:12:37;100506.69;;;23.62;45.83
63399;BME280;49533;-34.520;150.798;2023-12-22T02:15:05;100490.06;;;23.55;45.81
63399;BME280;49533;-34.520;150.798;2023-12-22T02:17:48;100490.84;;;23.55;45.66
63399;BME280;49533;-34.520;150.798;2023-12-22T02:20:17;100423.53;;;23.19;45.73
63399;BME280;49533;-34.520;150.798;2023-12-22T02:22:44;100489.25;;;23.69;46.26
63399;BME280;49533;-34.520;150.798;2023-12-22T02:25:11;100436.19;;;23.34;45.74
63399;BME280;49533;-34.520;150.798;2023-12-22T02:31:16;100479.00;;;23.73;46.11
63399;BME280;49533;-34.520;150.798;2023-12-22T02:33:10;100409.25;;;23.17;45.90
63399;BME280;49533;-34.520;150.798;2023-12-22T02:35:41;100462.72;;;23.75;45.71
63399;BME280;49533;-34.520;150.798;2023-12-22T02:38:10;100475.41;;;23.79;45.65
63399;BME280;49533;-34.520;150.798;2023-12-22T02:40:38;100459.16;;;23.81;46.08
63399;BME280;49533;-34.520;150.798;2023-12-22T02:46:50;100419.13;;;23.61;45.94
63399;BME280;49533;-34.520;150.798;2023-12-22T02:49:17;100453.19;;;23.86;45.80
63399;BME280;49533;-34.520;150.798;2023-12-22T02:51:45;100455.97;;;23.86;45.94
63399;BME280;49533;-34.520;150.798;2023-12-22T02:54:13;100414.38;;;23.58;46.01
63399;BME280;49533;-34.520;150.798;2023-12-22T02:56:40;100415.56;;;23.68;45.75
63399;BME280;49533;-34.520;150.798;2023-12-22T02:59:09;100422.69;;;23.65;45.94
63399;BME280;49533;-34.520;150.798;2023-12-22T03:01:36;100428.63;;;23.81;45.93
63399;BME280;49533;-34.520;150.798;2023-12-22T03:04:03;100441.72;;;23.81;45.58
63399;BME280;49533;-34.520;150.798;2023-12-22T03:06:30;100379.94;;;23.55;45.47
63399;BME280;49533;-34.520;150.798;2023-12-22T03:08:58;100394.16;;;23.61;45.88
63399;BME280;49533;-34.520;150.798;2023-12-22T03:11:25;100448.03;;;23.96;45.85
63399;BME280;49533;-34.520;150.798;2023-12-22T03:13:52;100411.63;;;23.76;45.93
63399;BME280;49533;-34.520;150.798;2023-12-22T03:16:19;100434.94;;;24.00;45.67
63399;BME280;49533;-34.520;150.798;2023-12-22T03:18:46;100408.00;;;23.82;45.90
63399;BME280;49533;-34.520;150.798;2023-12-22T03:21:19;100391.78;;;23.74;45.81
63399;BME280;49533;-34.520;150.798;2023-12-22T03:23:46;100417.09;;;23.97;46.11
63399;BME280;49533;-34.520;150.798;2023-12-22T03:26:13;100428.19;;;24.04;45.93
63399;BME280;49533;-34.520;150.798;2023-12-22T03:28:40;100425.00;;;24.06;46.18
63399;BME280;49533;-34.520;150.798;2023-12-22T03:31:07;100423.03;;;24.06;46.15
63399;BME280;49533;-34.520;150.798;2023-12-22T03:33:35;100429.75;;;24.09;46.42
63399;BME280;49533;-34.520;150.798;2023-12-22T03:36:02;100399.66;;;23.97;46.30
63399;BME280;49533;-34.520;150.798;2023-12-22T03:38:29;100368.03;;;23.73;46.12
63399;BME280;49533;-34.520;150.798;2023-12-22T03:40:56;100417.84;;;24.05;46.31
63399;BME280;49533;-34.520;150.798;2023-12-22T03:43:26;100417.06;;;24.08;46.43
63399;BME280;49533;-34.520;150.798;2023-12-22T03:45:53;100390.94;;;23.95;46.44
63399;BME280;49533;-34.520;150.798;2023-12-22T03:48:20;100390.16;;;23.94;46.57
63399;BME280;49533;-34.520;150.798;2023-12-22T03:50:47;100410.31;;;24.16;46.85
63399;BME280;49533;-34.520;150.798;2023-12-22T03:53:14;100418.22;;;24.21;47.15
63399;BME280;49533;-34.520;150.798;2023-12-22T03:55:41;100377.47;;;23.97;46.90
63399;BME280;49533;-34.520;150.798;2023-12-22T03:58:08;100385.34;;;24.05;47.23
63399;BME280;49533;-34.520;150.798;2023-12-22T04:00:36;100396.03;;;24.11;47.34
63399;BME280;49533;-34.520;150.798;2023-12-22T04:03:04;100405.13;;;24.18;47.02
63399;BME280;49533;-34.520;150.798;2023-12-22T04:05:31;100421.34;;;24.27;47.27
63399;BME280;49533;-34.520;150.798;2023-12-22T04:07:58;100403.56;;;24.17;47.37
63399;BME280;49533;-34.520;150.798;2023-12-22T04:10:25;100420.16;;;24.28;47.24
63399;BME280;49533;-34.520;150.798;2023-12-22T04:12:52;100416.56;;;24.31;47.35
63399;BME280;49533;-34.520;150.798;2023-12-22T04:15:19;100414.59;;;24.32;47.53
63399;BME280;49533;-34.520;150.798;2023-12-22T04:17:47;100420.16;;;24.32;47.48
63399;BME280;49533;-34.520;150.798;2023-12-22T04:20:18;100372.69;;;24.01;47.58
63399;BME280;49533;-34.520;150.798;2023-12-22T04:22:48;100385.72;;;24.15;47.53
63399;BME280;49533;-34.520;150.798;2023-12-22T04:25:15;100412.59;;;24.36;47.60
63399;BME280;49533;-34.520;150.798;2023-12-22T04:27:45;100414.19;;;24.37;48.02
63399;BME280;49533;-34.520;150.798;2023-12-22T04:30:12;100423.69;;;24.39;47.78
63399;BME280;49533;-34.520;150.798;2023-12-22T04:32:40;100350.16;;;23.88;47.72
63399;BME280;49533;-34.520;150.798;2023-12-22T04:35:07;100384.53;;;24.12;47.58
63399;BME280;49533;-34.520;150.798;2023-12-22T04:37:37;100405.88;;;24.29;47.87
63399;BME280;49533;-34.520;150.798;2023-12-22T04:40:04;100384.47;;;24.23;47.80
63399;BME280;49533;-34.520;150.798;2023-12-22T04:42:32;100350.53;;;23.94;47.92
63399;BME280;49533;-34.520;150.798;2023-12-22T04:44:59;100372.66;;;24.12;47.83
63399;BME280;49533;-34.520;150.798;2023-12-22T04:47:26;100413.75;;;24.42;47.90
63399;BME280;49533;-34.520;150.798;2023-12-22T04:49:53;100393.97;;;24.33;47.75
63399;BME280;49533;-34.520;150.798;2023-12-22T04:52:20;100420.09;;;24.42;47.75
63399;BME280;49533;-34.520;150.798;2023-12-22T04:54:47;100403.50;;;24.32;48.15
63399;BME280;49533;-34.520;150.798;2023-12-22T04:57:14;100427.22;;;24.43;47.99
63399;BME280;49533;-34.520;150.798;2023-12-22T04:59:41;100370.25;;;24.17;46.62
63399;BME280;49533;-34.520;150.798;2023-12-22T05:02:08;100430.41;;;24.38;46.53
63399;BME280;49533;-34.520;150.798;2023-12-22T05:04:35;100414.19;;;24.37;46.52
63399;BME280;49533;-34.520;150.798;2023-12-22T05:07:03;100425.28;;;24.37;46.48
63399;BME280;49533;-34.520;150.798;2023-12-22T05:09:34;100356.84;;;24.01;46.59
63399;BME280;49533;-34.520;150.798;2023-12-22T05:12:01;100403.91;;;24.26;46.78
63399;BME280;49533;-34.520;150.798;2023-12-22T05:14:28;100375.44;;;24.12;47.46
63399;BME280;49533;-34.520;150.798;2023-12-22T05:16:55;100396.34;;;24.34;46.48
63399;BME280;49533;-34.520;150.798;2023-12-22T05:19:23;100384.16;;;24.14;45.83
63399;BME280;49533;-34.520;150.798;2023-12-22T05:21:50;100388.47;;;24.18;46.02
63399;BME280;49533;-34.520;150.798;2023-12-22T05:24:18;100399.97;;;24.20;46.22
63399;BME280;49533;-34.520;150.798;2023-12-22T05:26:46;100405.91;;;24.22;46.79
63399;BME280;49533;-34.520;150.798;2023-12-22T05:29:13;100394.84;;;24.08;47.11
63399;BME280;49533;-34.520;150.798;2023-12-22T05:31:40;100402.72;;;24.20;46.96
63399;BME280;49533;-34.520;150.798;2023-12-22T05:34:07;100401.13;;;24.23;46.99
63399;BME280;49533;-34.520;150.798;2023-12-22T05:36:36;100379.78;;;24.09;47.11
63399;BME280;49533;-34.520;150.798;2023-12-22T05:39:03;100367.50;;;24.06;47.13
63399;BME280;49533;-34.520;150.798;2023-12-22T05:41:32;100418.22;;;24.21;47.17
63399;BME280;49533;-34.520;150.798;2023-12-22T05:44:02;100386.16;;;24.06;46.91
63399;BME280;49533;-34.520;150.798;2023-12-22T05:46:29;100402.72;;;24.20;46.70
63399;BME280;49533;-34.520;150.798;2023-12-22T05:48:56;100403.53;;;24.21;46.63
63399;BME280;49533;-34.520;150.798;2023-12-22T05:51:25;100390.13;;;24.08;46.93
63399;BME280;49533;-34.520;150.798;2023-12-22T05:53:52;100379.81;;;24.02;46.56
63399;BME280;49533;-34.520;150.798;2023-12-22T05:56:20;100389.31;;;24.04;47.49
63399;BME280;49533;-34.520;150.798;2023-12-22T05:58:49;100418.56;;;24.23;47.23
63399;BME280;49533;-34.520;150.798;2023-12-22T06:01:17;100417.00;;;24.22;47.11
63399;BME280;49533;-34.520;150.798;2023-12-22T06:03:45;100415.81;;;24.23;46.46
63399;BME280;49533;-34.520;150.798;2023-12-22T06:06:13;100428.84;;;24.34;47.00
63399;BME280;49533;-34.520;150.798;2023-12-22T06:08:40;100424.88;;;24.31;46.43
63399;BME280;49533;-34.520;150.798;2023-12-22T06:11:07;100429.66;;;24.30;46.45
63399;BME280;49533;-34.520;150.798;2023-12-22T06:13:34;100262.78;;;23.19;46.90
63399;BME280;49533;-34.520;150.798;2023-12-22T06:16:01;100428.88;;;24.30;45.67
63399;BME280;49533;-34.520;150.798;2023-12-22T06:18:28;100436.81;;;24.28;46.30
63399;BME280;49533;-34.520;150.798;2023-12-22T06:20:55;100411.88;;;24.17;46.53
63399;BME280;49533;-34.520;150.798;2023-12-22T06:23:22;100416.22;;;24.18;46.76
63399;BME280;49533;-34.520;150.798;2023-12-22T06:25:49;100422.16;;;24.20;46.88
63399;BME280;49533;-34.520;150.798;2023-12-22T06:28:16;100432.44;;;24.34;46.75
63399;BME280;49533;-34.520;150.798;2023-12-22T06:30:44;100420.56;;;24.23;46.77
63399;BME280;49533;-34.520;150.798;2023-12-22T06:33:13;100432.03;;;24.36;47.14
63399;BME280;49533;-34.520;150.798;2023-12-22T06:35:41;100435.22;;;24.34;46.74
63399;BME280;49533;-34.520;150.798;2023-12-22T06:38:08;100403.56;;;24.10;46.30
63399;BME280;49533;-34.520;150.798;2023-12-22T06:40:36;100406.75;;;24.08;46.81
63399;BME280;49533;-34.520;150.798;2023-12-22T06:43:04;100429.69;;;24.23;46.46
63399;BME280;49533;-34.520;150.798;2023-12-22T06:45:31;100406.75;;;24.12;46.69
63399;BME280;49533;-34.520;150.798;2023-12-22T06:47:58;100432.84;;;24.25;46.99
63399;BME280;49533;-34.520;150.798;2023-12-22T06:50:25;100433.69;;;24.19;47.11
63399;BME280;49533;-34.520;150.798;2023-12-22T06:52:52;100395.69;;;23.98;47.50
63399;BME280;49533;-34.520;150.798;2023-12-22T06:55:20;100417.06;;;24.08;47.57
63399;BME280;49533;-34.520;150.798;2023-12-22T06:57:47;100432.47;;;24.23;47.81
63399;BME280;49533;-34.520;150.798;2023-12-22T07:00:14;100419.84;;;24.04;47.68
63399;BME280;49533;-34.520;150.798;2023-12-22T07:02:41;100437.66;;;24.14;47.92
63399;BME280;49533;-34.520;150.798;2023-12-22T07:07:47;100435.69;;;24.11;47.56
63399;BME280;49533;-34.520;150.798;2023-12-22T07:10:14;100413.94;;;23.99;47.11
63399;BME280;49533;-34.520;150.798;2023-12-22T07:12:41;100408.78;;;23.94;47.17
63399;BME280;49533;-34.520;150.798;2023-12-22T07:15:09;100440.06;;;24.08;47.13
63399;BME280;49533;-34.520;150.798;2023-12-22T07:17:37;100420.28;;;23.96;46.57
63399;BME280;49533;-34.520;150.798;2023-12-22T07:20:04;100421.84;;;23.97;47.23
63399;BME280;49533;-34.520;150.798;2023-12-22T07:22:32;100448.38;;;24.12;47.39
63399;BME280;49533;-34.520;150.798;2023-12-22T07:24:59;100443.22;;;24.14;47.50
63399;BME280;49533;-34.520;150.798;2023-12-22T07:27:26;100419.47;;;23.99;47.36
63399;BME280;49533;-34.520;150.798;2023-12-22T07:29:53;100441.28;;;24.04;47.28
63399;BME280;49533;-34.520;150.798;2023-12-22T07:32:20;100434.53;;;23.98;46.87
63399;BME280;49533;-34.520;150.798;2023-12-22T07:34:47;100436.53;;;24.01;47.09
63399;BME280;49533;-34.520;150.798;2023-12-22T07:37:14;100427.44;;;23.86;47.15
63399;BME280;49533;-34.520;150.798;2023-12-22T07:39:41;100433.78;;;23.86;47.63
63399;BME280;49533;-34.520;150.798;2023-12-22T07:42:11;100447.22;;;23.99;47.88
63399;BME280;49533;-34.520;150.798;2023-12-22T07:44:38;100438.91;;;23.92;48.09
63399;BME280;49533;-34.520;150.798;2023-12-22T07:47:05;100434.16;;;23.89;47.91
63399;BME280;49533;-34.520;150.798;2023-12-22T07:49:33;100425.44;;;23.90;48.05
63399;BME280;49533;-34.520;150.798;2023-12-22T07:52:00;100411.59;;;23.86;47.65
63399;BME280;49533;-34.520;150.798;2023-12-22T07:54:27;100400.88;;;23.89;47.64
63399;BME280;49533;-34.520;150.798;2023-12-22T07:56:54;100418.66;;;24.02;48.01
63399;BME280;49533;-34.520;150.798;2023-12-22T07:59:21;100446.72;;;24.25;47.74
63399;BME280;49533;-34.520;150.798;2023-12-22T08:01:49;100410.72;;;24.00;47.91
63399;BME280;49533;-34.520;150.798;2023-12-22T08:04:16;100429.34;;;24.14;47.93
63399;BME280;49533;-34.520;150.798;2023-12-22T08:06:43;100440.38;;;24.28;48.10
63399;BME280;49533;-34.520;150.798;2023-12-22T08:09:10;100449.53;;;24.22;47.77
63399;BME280;49533;-34.520;150.798;2023-12-22T08:11:37;100453.47;;;24.28;47.68
63399;BME280;49533;-34.520;150.798;2023-12-22T08:14:04;100403.22;;;23.97;47.83
63399;BME280;49533;-34.520;150.798;2023-12-22T08:16:31;100466.94;;;24.33;48.16
63399;BME280;49533;-34.520;150.798;2023-12-22T08:18:59;100468.13;;;24.36;47.75
63399;BME280;49533;-34.520;150.798;2023-12-22T08:21:26;100442.81;;;24.19;47.94
63399;BME280;49533;-34.520;150.798;2023-12-22T08:23:54;100472.50;;;24.37;47.85
63399;BME280;49533;-34.520;150.798;2023-12-22T08:26:23;100471.69;;;24.33;47.77
63399;BME280;49533;-34.520;150.798;2023-12-22T08:28:50;100480.41;;;24.38;47.78
63399;BME280;49533;-34.520;150.798;2023-12-22T08:31:17;100455.47;;;24.20;47.97
63399;BME280;49533;-34.520;150.798;2023-12-22T08:33:45;100466.94;;;24.26;47.71
63399;BME280;49533;-34.520;150.798;2023-12-22T08:36:12;100467.78;;;24.26;47.67
63399;BME280;49533;-34.520;150.798;2023-12-22T08:38:39;100479.66;;;24.23;48.03
63399;BME280;49533;-34.520;150.798;2023-12-22T08:41:07;100486.41;;;24.29;47.84
63399;BME280;49533;-34.520;150.798;2023-12-22T08:43:34;100401.69;;;23.75;48.31
63399;BME280;49533;-34.520;150.798;2023-12-22T08:46:02;100492.72;;;24.37;47.79
63399;BME280;49533;-34.520;150.798;2023-12-22T08:48:29;100494.28;;;24.38;48.13
63399;BME280;49533;-34.520;150.798;2023-12-22T08:50:56;100491.53;;;24.35;47.96
63399;BME280;49533;-34.520;150.798;2023-12-22T08:53:23;100474.16;;;24.16;47.96
63399;BME280;49533;-34.520;150.798;2023-12-22T08:55:51;100507.41;;;24.34;48.13
63399;BME280;49533;-34.520;150.798;2023-12-22T08:58:18;100504.59;;;24.38;48.25
63399;BME280;49533;-34.520;150.798;2023-12-22T09:00:45;100489.22;;;24.12;48.44
63399;BME280;49533;-34.520;150.798;2023-12-22T09:03:13;100512.94;;;24.38;48.34
63399;BME280;49533;-34.520;150.798;2023-12-22T09:05:40;100497.91;;;24.17;48.25
63399;BME280;49533;-34.520;150.798;2023-12-22T09:08:07;100523.66;;;24.28;48.33
63399;BME280;49533;-34.520;150.798;2023-12-22T09:10:34;100490.03;;;24.05;48.23
63399;BME280;49533;-34.520;150.798;2023-12-22T09:13:01;100528.41;;;24.35;48.45
63399;BME280;49533;-34.520;150.798;2023-12-22T09:15:28;100508.63;;;24.19;48.12
63399;BME280;49533;-34.520;150.798;2023-12-22T09:17:55;100522.47;;;24.33;48.46
63399;BME280;49533;-34.520;150.798;2023-12-22T09:20:23;100520.50;;;24.26;48.44
63399;BME280;49533;-34.520;150.798;2023-12-22T09:22:50;100505.88;;;24.19;48.71
63399;BME280;49533;-34.520;150.798;2023-12-22T09:25:17;100524.84;;;24.31;48.52
63399;BME280;49533;-34.520;150.798;2023-12-22T09:27:44;100507.81;;;24.25;48.48
63399;BME280;49533;-34.520;150.798;2023-12-22T09:30:11;100467.81;;;24.05;48.23
63399;BME280;49533;-34.520;150.798;2023-12-22T09:32:38;100503.44;;;24.21;48.60
63399;BME280;49533;-34.520;150.798;2023-12-22T09:35:05;100493.19;;;24.07;48.42
63399;BME280;49533;-34.520;150.798;2023-12-22T09:37:34;100525.66;;;24.28;48.53
63399;BME280;49533;-34.520;150.798;2023-12-22T09:40:01;100520.88;;;24.28;48.69
63399;BME280;49533;-34.520;150.798;2023-12-22T09:42:28;100488.03;;;24.05;48.39
63399;BME280;49533;-34.520;150.798;2023-12-22T09:44:57;100508.66;;;24.12;48.48
63399;BME280;49533;-34.520;150.798;2023-12-22T09:47:26;100495.56;;;24.05;48.54
63399;BME280;49533;-34.520;150.798;2023-12-22T09:49:56;100511.03;;;24.09;48.24
63399;BME280;49533;-34.520;150.798;2023-12-22T09:52:24;100522.50;;;24.15;48.57
63399;BME280;49533;-34.520;150.798;2023-12-22T09:54:54;100511.41;;;24.08;48.71
63399;BME280;49533;-34.520;150.798;2023-12-22T09:57:24;100519.34;;;24.13;48.36
63399;BME280;49533;-34.520;150.798;2023-12-22T09:59:53;100509.06;;;24.06;48.36
63399;BME280;49533;-34.520;150.798;2023-12-22T10:02:21;100454.81;;;23.73;48.38
63399;BME280;49533;-34.520;150.798;2023-12-22T10:04:50;100541.91;;;24.26;48.57
63399;BME280;49533;-34.520;150.798;2023-12-22T10:07:17;100395.81;;;23.30;48.48
63399;BME280;49533;-34.520;150.798;2023-12-22T10:09:47;100541.13;;;24.25;48.63
63399;BME280;49533;-34.520;150.798;2023-12-22T10:12:14;100512.63;;;24.00;48.78
63399;BME280;49533;-34.520;150.798;2023-12-22T10:14:43;100474.22;;;23.80;48.79
63399;BME280;49533;-34.520;150.798;2023-12-22T10:17:10;100535.19;;;24.20;48.57
63399;BME280;49533;-34.520;150.798;2023-12-22T10:19:38;100515.00;;;24.01;48.93
63399;BME280;49533;-34.520;150.798;2023-12-22T10:22:06;100537.59;;;24.14;48.46
63399;BME280;49533;-34.520;150.798;2023-12-22T10:24:44;100519.38;;;24.02;48.95
63399;BME280;49533;-34.520;150.798;2023-12-22T10:27:17;100527.69;;;24.06;48.83
63399;BME280;49533;-34.520;150.798;2023-12-22T10:29:54;100545.13;;;24.14;48.72
63399;BME280;49533;-34.520;150.798;2023-12-22T10:32:22;100548.69;;;24.14;48.90
63399;BME280;49533;-34.520;150.798;2023-12-22T10:34:52;100547.91;;;24.06;48.80
63399;BME280;49533;-34.520;150.798;2023-12-22T10:37:21;100534.44;;;23.94;49.06
63399;BME280;49533;-34.520;150.798;2023-12-22T10:39:53;100547.91;;;24.10;48.64
63399;BME280;49533;-34.520;150.798;2023-12-22T10:42:21;100505.91;;;23.79;48.82
63399;BME280;49533;-34.520;150.798;2023-12-22T10:44:48;100557.44;;;24.09;48.97
63399;BME280;49533;-34.520;150.798;2023-12-22T10:47:17;100546.31;;;24.02;48.63
63399;BME280;49533;-34.520;150.798;2023-12-22T10:49:46;100531.28;;;23.92;48.85
63399;BME280;49533;-34.520;150.798;2023-12-22T10:52:17;100530.88;;;23.90;48.75
63399;BME280;49533;-34.520;150.798;2023-12-22T10:54:44;100509.06;;;23.71;48.48
63399;BME280;49533;-34.520;150.798;2023-12-22T10:57:12;100518.63;;;23.80;48.84
63399;BME280;49533;-34.520;150.798;2023-12-22T10:59:44;100524.94;;;23.84;48.72
63399;BME280;49533;-34.520;150.798;2023-12-22T11:02:18;100551.47;;;24.00;48.99
63399;BME280;49533;-34.520;150.798;2023-12-22T11:07:19;100517.41;;;23.74;48.48
63399;BME280;49533;-34.520;150.798;2023-12-22T11:09:51;100550.72;;;23.96;48.53
63399;BME280;49533;-34.520;150.798;2023-12-22T11:12:21;100522.16;;;23.77;48.60
63399;BME280;49533;-34.520;150.798;2023-12-22T11:14:50;100555.84;;;23.90;48.71
63399;BME280;49533;-34.520;150.798;2023-12-22T11:17:23;100494.81;;;23.51;48.66
63399;BME280;49533;-34.520;150.798;2023-12-22T11:19:53;100561.38;;;23.90;48.64
63399;BME280;49533;-34.520;150.798;2023-12-22T11:22:21;100518.56;;;23.59;48.97
63399;BME280;49533;-34.520;150.798;2023-12-22T11:24:49;100551.50;;;23.85;48.54
63399;BME280;49533;-34.520;150.798;2023-12-22T11:27:20;100539.22;;;23.79;48.70
63399;BME280;49533;-34.520;150.798;2023-12-22T11:29:49;100498.38;;;23.55;48.68
63399;BME280;49533;-34.520;150.798;2023-12-22T11:32:17;100515.41;;;23.64;48.81
63399;BME280;49533;-34.520;150.798;2023-12-22T11:34:46;100534.06;;;23.74;48.67
63399;BME280;49533;-34.520;150.798;2023-12-22T11:37:15;100531.25;;;23.63;48.89
63399;BME280;49533;-34.520;150.798;2023-12-22T11:39:43;100560.63;;;23.79;48.76
63399;BME280;49533;-34.520;150.798;2023-12-22T11:42:34;100541.56;;;23.70;48.97
63399;BME280;49533;-34.520;150.798;2023-12-22T11:45:05;100541.56;;;23.63;48.74
63399;BME280;49533;-34.520;150.798;2023-12-22T11:47:33;100495.19;;;23.31;48.92
63399;BME280;49533;-34.520;150.798;2023-12-22T11:50:01;100543.94;;;23.68;48.91
63399;BME280;49533;-34.520;150.798;2023-12-22T11:52:28;100555.03;;;23.72;48.84
63399;BME280;49533;-34.520;150.798;2023-12-22T11:54:56;100531.66;;;23.55;48.57
63399;BME280;49533;-34.520;150.798;2023-12-22T11:57:29;100557.44;;;23.73;48.80
63399;BME280;49533;-34.520;150.798;2023-12-22T12:00:05;100543.16;;;23.71;48.92
63399;BME280;49533;-34.520;150.798;2023-12-22T12:02:39;100544.72;;;23.58;48.91
63399;BME280;49533;-34.520;150.798;2023-12-22T12:05:10;100545.53;;;23.65;49.16
63399;BME280;49533;-34.520;150.798;2023-12-22T12:10:13;100556.59;;;23.62;49.03
63399;BME280;49533;-34.520;150.798;2023-12-22T12:13:10;100551.06;;;23.62;49.29
63399;BME280;49533;-34.520;150.798;2023-12-22T12:15:38;100513.03;;;23.37;49.16
63399;BME280;49533;-34.520;150.798;2023-12-22T12:18:05;100467.06;;;23.08;49.35
63399;BME280;49533;-34.520;150.798;2023-12-22T12:20:33;100538.38;;;23.54;49.25
63399;BME280;49533;-34.520;150.798;2023-12-22T12:23:02;100534.03;;;23.53;49.31
63399;BME280;49533;-34.520;150.798;2023-12-22T12:25:34;100499.53;;;23.29;49.18
63399;BME280;49533;-34.520;150.798;2023-12-22T12:28:08;100500.72;;;23.28;49.21
63399;BME280;49533;-34.520;150.798;2023-12-22T12:30:37;100477.34;;;23.11;49.08
63399;BME280;49533;-34.520;150.798;2023-12-22T12:33:09;100530.84;;;23.43;49.40
63399;BME280;49533;-34.520;150.798;2023-12-22T12:35:40;100522.94;;;23.42;49.46
63399;BME280;49533;-34.520;150.798;2023-12-22T12:38:10;100505.91;;;23.29;49.30
63399;BME280;49533;-34.520;150.798;2023-12-22T12:40:40;100526.09;;;23.40;49.34